sensor_id;sensor_type;location;lat;lon;timestamp;temperature;humidity
67769;DHT22;54569;52.018;5.584;2023-07-02T00:00:00;18.40;79.80
67769;DHT22;54569;52.018;5.584;2023-07-02T00:02:26;18.40;79.70
67769;DHT22;54569;52.018;5.584;2023-07-02T00:04:52;18.40;79.80
67769;DHT22;54569;52.018;5.584;2023-07-02T00:07:17;18.40;79.80
67769;DHT22;54569;52.018;5.584;2023-07-02T00:09:43;18.40;79.70
67769;DHT22;54569;52.018;5.584;2023-07-02T00:12:09;18.40;79.80
67769;DHT22;54569;52.018;5.584;2023-07-02T00:14:35;18.40;79.20
67769;DHT22;54569;52.018;5.584;2023-07-02T00:17:01;18.20;78.60
67769;DHT22;54569;52.018;5.584;2023-07-02T00:19:27;18.10;78.90
67769;DHT22;54569;52.018;5.584;2023-07-02T00:21:53;18.00;79.00
67769;DHT22;54569;52.018;5.584;2023-07-02T00:24:22;18.00;79.10
67769;DHT22;54569;52.018;5.584;2023-07-02T00:26:47;17.90;79.20
67769;DHT22;54569;52.018;5.584;2023-07-02T00:29:14;17.90;79.50
67769;DHT22;54569;52.018;5.584;2023-07-02T00:31:39;17.80;79.20
67769;DHT22;54569;52.018;5.584;2023-07-02T00:34:05;17.80;79.50
67769;DHT22;54569;52.018;5.584;2023-07-02T00:36:31;17.70;79.60
67769;DHT22;54569;52.018;5.584;2023-07-02T00:38:58;17.70;79.80
67769;DHT22;54569;52.018;5.584;2023-07-02T00:41:24;17.60;79.90
67769;DHT22;54569;52.018;5.584;2023-07-02T00:43:50;17.60;80.20
67769;DHT22;54569;52.018;5.584;2023-07-02T00:46:21;17.60;80.30
67769;DHT22;54569;52.018;5.584;2023-07-02T00:51:22;17.50;80.70
67769;DHT22;54569;52.018;5.584;2023-07-02T00:53:50;17.40;80.40
67769;DHT22;54569;52.018;5.584;2023-07-02T00:56:16;17.30;80.30
67769;DHT22;54569;52.018;5.584;2023-07-02T00:58:43;17.30;80.30
67769;DHT22;54569;52.018;5.584;2023-07-02T01:01:18;17.30;80.50
67769;DHT22;54569;52.018;5.584;2023-07-02T01:04:04;17.30;80.40
67769;DHT22;54569;52.018;5.584;2023-07-02T01:06:35;17.30;81.00
67769;DHT22;54569;52.018;5.584;2023-07-02T01:09:03;17.20;80.20
67769;DHT22;54569;52.018;5.584;2023-07-02T01:11:41;17.20;80.10
67769;DHT22;54569;52.018;5.584;2023-07-02T01:16:36;17.10;80.00
67769;DHT22;54569;52.018;5.584;2023-07-02T01:19:04;17.10;80.20
67769;DHT22;54569;52.018;5.584;2023-07-02T01:21:34;17.10;80.10
67769;DHT22;54569;52.018;5.584;2023-07-02T01:24:01;17.10;80.20
67769;DHT22;54569;52.018;5.584;2023-07-02T01:26:31;17.00;80.20
67769;DHT22;54569;52.018;5.584;2023-07-02T01:29:16;17.00;80.10
67769;DHT22;54569;52.018;5.584;2023-07-02T01:31:42;17.00;80.00
67769;DHT22;54569;52.018;5.584;2023-07-02T01:34:07;16.90;80.10
67769;DHT22;54569;52.018;5.584;2023-07-02T01:36:35;16.90;80.30
67769;DHT22;54569;52.018;5.584;2023-07-02T01:39:01;16.90;80.30
67769;DHT22;54569;52.018;5.584;2023-07-02T01:41:27;16.90;80.30
67769;DHT22;54569;52.018;5.584;2023-07-02T01:43:52;16.80;80.20
67769;DHT22;54569;52.018;5.584;2023-07-02T01:46:18;16.80;80.40
67769;DHT22;54569;52.018;5.584;2023-07-02T01:48:44;16.80;80.50
67769;DHT22;54569;52.018;5.584;2023-07-02T01:51:10;16.80;80.50
67769;DHT22;54569;52.018;5.584;2023-07-02T01:53:36;16.80;80.50
67769;DHT22;54569;52.018;5.584;2023-07-02T01:56:01;16.80;80.70
67769;DHT22;54569;52.018;5.584;2023-07-02T01:58:27;16.70;80.70
67769;DHT22;54569;52.018;5.584;2023-07-02T02:00:53;16.70;80.90
67769;DHT22;54569;52.018;5.584;2023-07-02T02:03:18;16.60;81.20
67769;DHT22;54569;52.018;5.584;2023-07-02T02:05:44;16.60;81.40
67769;DHT22;54569;52.018;5.584;2023-07-02T02:08:10;16.50;81.50
67769;DHT22;54569;52.018;5.584;2023-07-02T02:10:37;16.50;81.50
67769;DHT22;54569;52.018;5.584;2023-07-02T02:13:03;16.50;81.70
67769;DHT22;54569;52.018;5.584;2023-07-02T02:15:28;16.40;81.80
67769;DHT22;54569;52.018;5.584;2023-07-02T02:17:54;16.40;81.90
67769;DHT22;54569;52.018;5.584;2023-07-02T02:20:20;16.40;82.10
67769;DHT22;54569;52.018;5.584;2023-07-02T02:22:45;16.40;82.20
67769;DHT22;54569;52.018;5.584;2023-07-02T02:25:11;16.30;82.30
67769;DHT22;54569;52.018;5.584;2023-07-02T02:27:37;16.30;82.40
67769;DHT22;54569;52.018;5.584;2023-07-02T02:30:03;16.30;82.30
67769;DHT22;54569;52.018;5.584;2023-07-02T02:32:33;16.30;82.40
67769;DHT22;54569;52.018;5.584;2023-07-02T02:34:59;16.30;82.50
67769;DHT22;54569;52.018;5.584;2023-07-02T02:37:25;16.20;82.50
67769;DHT22;54569;52.018;5.584;2023-07-02T02:39:50;16.20;82.60
67769;DHT22;54569;52.018;5.584;2023-07-02T02:42:17;16.20;82.60
67769;DHT22;54569;52.018;5.584;2023-07-02T02:44:43;16.20;82.80
67769;DHT22;54569;52.018;5.584;2023-07-02T02:47:09;16.20;82.80
67769;DHT22;54569;52.018;5.584;2023-07-02T02:49:37;16.10;82.80
67769;DHT22;54569;52.018;5.584;2023-07-02T02:52:05;16.10;82.90
67769;DHT22;54569;52.018;5.584;2023-07-02T02:54:30;16.10;82.90
67769;DHT22;54569;52.018;5.584;2023-07-02T02:56:56;16.10;83.00
67769;DHT22;54569;52.018;5.584;2023-07-02T02:59:22;16.10;83.00
67769;DHT22;54569;52.018;5.584;2023-07-02T03:01:47;16.10;83.10
67769;DHT22;54569;52.018;5.584;2023-07-02T03:04:13;16.10;83.00
67769;DHT22;54569;52.018;5.584;2023-07-02T03:06:39;16.10;82.90
67769;DHT22;54569;52.018;5.584;2023-07-02T03:09:05;16.10;83.00
67769;DHT22;54569;52.018;5.584;2023-07-02T03:11:31;16.10;83.10
67769;DHT22;54569;52.018;5.584;2023-07-02T03:13:56;16.10;82.90
67769;DHT22;54569;52.018;5.584;2023-07-02T03:16:22;16.10;82.90
67769;DHT22;54569;52.018;5.584;2023-07-02T03:18:48;16.10;82.90
67769;DHT22;54569;52.018;5.584;2023-07-02T03:21:13;16.10;82.90
67769;DHT22;54569;52.018;5.584;2023-07-02T03:23:39;16.10;83.60
67769;DHT22;54569;52.018;5.584;2023-07-02T03:26:05;16.10;82.90
67769;DHT22;54569;52.018;5.584;2023-07-02T03:28:30;16.10;82.90
67769;DHT22;54569;52.018;5.584;2023-07-02T03:30:56;16.10;82.80
67769;DHT22;54569;52.018;5.584;2023-07-02T03:33:22;16.10;82.80
67769;DHT22;54569;52.018;5.584;2023-07-02T03:35:48;16.10;82.70
67769;DHT22;54569;52.018;5.584;2023-07-02T03:38:14;16.00;82.50
67769;DHT22;54569;52.018;5.584;2023-07-02T03:40:40;16.00;82.40
67769;DHT22;54569;52.018;5.584;2023-07-02T03:43:06;16.00;82.30
67769;DHT22;54569;52.018;5.584;2023-07-02T03:45:31;16.00;82.30
67769;DHT22;54569;52.018;5.584;2023-07-02T03:47:57;16.00;82.30
67769;DHT22;54569;52.018;5.584;2023-07-02T03:50:22;16.00;82.10
67769;DHT22;54569;52.018;5.584;2023-07-02T03:52:48;15.90;82.00
67769;DHT22;54569;52.018;5.584;2023-07-02T03:55:14;15.90;81.80
67769;DHT22;54569;52.018;5.584;2023-07-02T03:57:39;15.90;81.70
67769;DHT22;54569;52.018;5.584;2023-07-02T04:00:06;15.90;81.60
67769;DHT22;54569;52.018;5.584;2023-07-02T04:02:40;15.90;81.40
67769;DHT22;54569;52.018;5.584;2023-07-02T04:05:06;15.90;81.40
67769;DHT22;54569;52.018;5.584;2023-07-02T04:07:32;15.90;81.10
67769;DHT22;54569;52.018;5.584;2023-07-02T04:09:57;15.80;81.10
67769;DHT22;54569;52.018;5.584;2023-07-02T04:12:23;15.80;81.00
67769;DHT22;54569;52.018;5.584;2023-07-02T04:14:49;15.80;80.90
67769;DHT22;54569;52.018;5.584;2023-07-02T04:17:14;15.80;80.80
67769;DHT22;54569;52.018;5.584;2023-07-02T04:19:40;15.80;80.70
67769;DHT22;54569;52.018;5.584;2023-07-02T04:22:06;15.80;80.70
67769;DHT22;54569;52.018;5.584;2023-07-02T04:24:35;15.80;80.60
67769;DHT22;54569;52.018;5.584;2023-07-02T04:27:00;15.80;80.40
67769;DHT22;54569;52.018;5.584;2023-07-02T04:29:26;15.80;80.30
67769;DHT22;54569;52.018;5.584;2023-07-02T04:31:52;15.80;80.20
67769;DHT22;54569;52.018;5.584;2023-07-02T04:34:17;15.80;80.20
67769;DHT22;54569;52.018;5.584;2023-07-02T04:36:47;15.80;80.10
67769;DHT22;54569;52.018;5.584;2023-07-02T04:39:13;15.80;80.00
67769;DHT22;54569;52.018;5.584;2023-07-02T04:41:38;15.80;80.40
67769;DHT22;54569;52.018;5.584;2023-07-02T04:44:04;15.80;79.80
67769;DHT22;54569;52.018;5.584;2023-07-02T04:46:30;15.80;79.60
67769;DHT22;54569;52.018;5.584;2023-07-02T04:48:55;15.90;79.50
67769;DHT22;54569;52.018;5.584;2023-07-02T04:51:21;15.80;79.40
67769;DHT22;54569;52.018;5.584;2023-07-02T04:53:47;15.90;79.40
67769;DHT22;54569;52.018;5.584;2023-07-02T04:56:12;15.90;79.30
67769;DHT22;54569;52.018;5.584;2023-07-02T04:58:38;15.90;79.10
67769;DHT22;54569;52.018;5.584;2023-07-02T05:01:04;15.90;79.00
67769;DHT22;54569;52.018;5.584;2023-07-02T05:03:30;15.90;78.90
67769;DHT22;54569;52.018;5.584;2023-07-02T05:05:56;15.90;78.90
67769;DHT22;54569;52.018;5.584;2023-07-02T05:08:21;15.90;78.80
67769;DHT22;54569;52.018;5.584;2023-07-02T05:10:48;15.90;78.70
67769;DHT22;54569;52.018;5.584;2023-07-02T05:13:14;15.90;78.60
67769;DHT22;54569;52.018;5.584;2023-07-02T05:15:40;15.90;78.50
67769;DHT22;54569;52.018;5.584;2023-07-02T05:18:05;16.00;78.40
67769;DHT22;54569;52.018;5.584;2023-07-02T05:20:32;16.00;78.30
67769;DHT22;54569;52.018;5.584;2023-07-02T05:22:58;16.00;78.10
67769;DHT22;54569;52.018;5.584;2023-07-02T05:25:23;16.00;78.00
67769;DHT22;54569;52.018;5.584;2023-07-02T05:27:49;16.10;77.90
67769;DHT22;54569;52.018;5.584;2023-07-02T05:30:15;16.10;77.70
67769;DHT22;54569;52.018;5.584;2023-07-02T05:32:42;16.20;77.80
67769;DHT22;54569;52.018;5.584;2023-07-02T05:35:08;16.20;77.60
67769;DHT22;54569;52.018;5.584;2023-07-02T05:37:36;16.30;77.60
67769;DHT22;54569;52.018;5.584;2023-07-02T05:40:02;16.30;77.40
67769;DHT22;54569;52.018;5.584;2023-07-02T05:42:28;16.40;77.40
67769;DHT22;54569;52.018;5.584;2023-07-02T05:44:54;16.40;77.30
67769;DHT22;54569;52.018;5.584;2023-07-02T05:47:19;16.50;77.00
67769;DHT22;54569;52.018;5.584;2023-07-02T05:49:45;16.50;76.80
67769;DHT22;54569;52.018;5.584;2023-07-02T05:52:11;16.50;76.80
67769;DHT22;54569;52.018;5.584;2023-07-02T05:54:40;16.60;76.60
67769;DHT22;54569;52.018;5.584;2023-07-02T05:57:05;16.70;76.30
67769;DHT22;54569;52.018;5.584;2023-07-02T05:59:31;16.70;76.00
67769;DHT22;54569;52.018;5.584;2023-07-02T06:01:57;16.70;75.90
67769;DHT22;54569;52.018;5.584;2023-07-02T06:04:22;16.70;75.90
67769;DHT22;54569;52.018;5.584;2023-07-02T06:06:48;16.80;75.90
67769;DHT22;54569;52.018;5.584;2023-07-02T06:09:14;16.80;75.70
67769;DHT22;54569;52.018;5.584;2023-07-02T06:11:39;16.80;75.50
67769;DHT22;54569;52.018;5.584;2023-07-02T06:14:05;16.80;75.50
67769;DHT22;54569;52.018;5.584;2023-07-02T06:16:31;16.90;75.30
67769;DHT22;54569;52.018;5.584;2023-07-02T06:18:56;16.90;75.30
67769;DHT22;54569;52.018;5.584;2023-07-02T06:21:22;17.00;75.10
67769;DHT22;54569;52.018;5.584;2023-07-02T06:23:48;17.10;74.90
67769;DHT22;54569;52.018;5.584;2023-07-02T06:26:14;17.20;74.70
67769;DHT22;54569;52.018;5.584;2023-07-02T06:28:40;17.30;74.60
67769;DHT22;54569;52.018;5.584;2023-07-02T06:31:05;17.30;74.10
67769;DHT22;54569;52.018;5.584;2023-07-02T06:33:31;17.40;74.10
67769;DHT22;54569;52.018;5.584;2023-07-02T06:35:57;17.40;73.80
67769;DHT22;54569;52.018;5.584;2023-07-02T06:38:23;17.50;73.60
67769;DHT22;54569;52.018;5.584;2023-07-02T06:40:48;17.50;73.60
67769;DHT22;54569;52.018;5.584;2023-07-02T06:43:14;17.50;73.50
67769;DHT22;54569;52.018;5.584;2023-07-02T06:45:40;17.60;73.00
67769;DHT22;54569;52.018;5.584;2023-07-02T06:48:05;17.40;72.90
67769;DHT22;54569;52.018;5.584;2023-07-02T06:50:31;17.50;73.20
67769;DHT22;54569;52.018;5.584;2023-07-02T06:52:57;17.50;73.10
67769;DHT22;54569;52.018;5.584;2023-07-02T06:55:22;17.50;73.00
67769;DHT22;54569;52.018;5.584;2023-07-02T06:57:49;17.50;72.80
67769;DHT22;54569;52.018;5.584;2023-07-02T07:00:15;17.60;72.80
67769;DHT22;54569;52.018;5.584;2023-07-02T07:02:41;17.60;73.20
67769;DHT22;54569;52.018;5.584;2023-07-02T07:05:07;17.70;72.90
67769;DHT22;54569;52.018;5.584;2023-07-02T07:07:32;17.80;72.80
67769;DHT22;54569;52.018;5.584;2023-07-02T07:09:58;17.80;72.50
67769;DHT22;54569;52.018;5.584;2023-07-02T07:12:24;17.80;72.20
67769;DHT22;54569;52.018;5.584;2023-07-02T07:14:49;17.90;72.30
67769;DHT22;54569;52.018;5.584;2023-07-02T07:17:15;18.00;72.10
67769;DHT22;54569;52.018;5.584;2023-07-02T07:19:41;18.10;71.70
67769;DHT22;54569;52.018;5.584;2023-07-02T07:22:06;18.20;71.40
67769;DHT22;54569;52.018;5.584;2023-07-02T07:24:32;18.20;72.00
67769;DHT22;54569;52.018;5.584;2023-07-02T07:26:58;18.30;71.40
67769;DHT22;54569;52.018;5.584;2023-07-02T07:29:23;18.40;71.50
67769;DHT22;54569;52.018;5.584;2023-07-02T07:31:50;18.30;71.10
67769;DHT22;54569;52.018;5.584;2023-07-02T07:34:15;18.40;70.60
67769;DHT22;54569;52.018;5.584;2023-07-02T07:36:41;18.30;70.20
67769;DHT22;54569;52.018;5.584;2023-07-02T07:39:07;18.40;70.10
67769;DHT22;54569;52.018;5.584;2023-07-02T07:41:33;18.50;70.00
67769;DHT22;54569;52.018;5.584;2023-07-02T07:43:58;18.60;69.40
67769;DHT22;54569;52.018;5.584;2023-07-02T07:46:24;18.60;69.20
67769;DHT22;54569;52.018;5.584;2023-07-02T07:48:49;18.60;68.90
67769;DHT22;54569;52.018;5.584;2023-07-02T07:51:15;18.50;69.00
67769;DHT22;54569;52.018;5.584;2023-07-02T07:53:41;18.50;68.90
67769;DHT22;54569;52.018;5.584;2023-07-02T07:56:06;18.50;69.20
67769;DHT22;54569;52.018;5.584;2023-07-02T07:58:32;18.50;69.00
67769;DHT22;54569;52.018;5.584;2023-07-02T08:00:58;18.60;68.70
67769;DHT22;54569;52.018;5.584;2023-07-02T08:03:23;18.70;68.10
67769;DHT22;54569;52.018;5.584;2023-07-02T08:05:49;18.70;67.80
67769;DHT22;54569;52.018;5.584;2023-07-02T08:08:15;18.80;67.80
67769;DHT22;54569;52.018;5.584;2023-07-02T08:10:40;18.80;67.40
67769;DHT22;54569;52.018;5.584;2023-07-02T08:13:07;18.80;67.90
67769;DHT22;54569;52.018;5.584;2023-07-02T08:15:33;18.80;67.80
67769;DHT22;54569;52.018;5.584;2023-07-02T08:17:59;18.90;67.80
67769;DHT22;54569;52.018;5.584;2023-07-02T08:20:25;19.00;67.00
67769;DHT22;54569;52.018;5.584;2023-07-02T08:22:51;19.10;66.60
67769;DHT22;54569;52.018;5.584;2023-07-02T08:25:17;19.20;66.40
67769;DHT22;54569;52.018;5.584;2023-07-02T08:27:44;19.20;65.90
67769;DHT22;54569;52.018;5.584;2023-07-02T08:30:10;19.30;65.60
67769;DHT22;54569;52.018;5.584;2023-07-02T08:32:36;19.40;64.90
67769;DHT22;54569;52.018;5.584;2023-07-02T08:35:02;19.30;64.90
67769;DHT22;54569;52.018;5.584;2023-07-02T08:37:27;19.30;64.90
67769;DHT22;54569;52.018;5.584;2023-07-02T08:39:53;19.40;64.90
67769;DHT22;54569;52.018;5.584;2023-07-02T08:42:19;19.40;64.80
67769;DHT22;54569;52.018;5.584;2023-07-02T08:44:53;19.40;64.70
67769;DHT22;54569;52.018;5.584;2023-07-02T08:47:19;19.40;64.60
67769;DHT22;54569;52.018;5.584;2023-07-02T08:49:45;19.30;65.20
67769;DHT22;54569;52.018;5.584;2023-07-02T08:52:13;19.30;64.70
67769;DHT22;54569;52.018;5.584;2023-07-02T08:54:39;19.30;65.00
67769;DHT22;54569;52.018;5.584;2023-07-02T08:57:05;19.40;64.60
67769;DHT22;54569;52.018;5.584;2023-07-02T08:59:31;19.40;64.10
67769;DHT22;54569;52.018;5.584;2023-07-02T09:01:57;19.50;64.00
67769;DHT22;54569;52.018;5.584;2023-07-02T09:04:24;19.70;64.10
67769;DHT22;54569;52.018;5.584;2023-07-02T09:07:05;19.80;63.50
67769;DHT22;54569;52.018;5.584;2023-07-02T09:09:31;19.90;62.00
67769;DHT22;54569;52.018;5.584;2023-07-02T09:11:56;19.90;62.60
67769;DHT22;54569;52.018;5.584;2023-07-02T09:14:27;19.80;62.50
67769;DHT22;54569;52.018;5.584;2023-07-02T09:17:07;19.90;63.00
67769;DHT22;54569;52.018;5.584;2023-07-02T09:19:34;20.00;61.50
67769;DHT22;54569;52.018;5.584;2023-07-02T09:22:00;20.20;62.50
67769;DHT22;54569;52.018;5.584;2023-07-02T09:24:27;20.20;61.30
67769;DHT22;54569;52.018;5.584;2023-07-02T09:26:55;20.10;62.10
67769;DHT22;54569;52.018;5.584;2023-07-02T09:31:52;20.30;61.60
67769;DHT22;54569;52.018;5.584;2023-07-02T09:34:18;20.40;61.50
67769;DHT22;54569;52.018;5.584;2023-07-02T09:36:44;20.50;60.60
67769;DHT22;54569;52.018;5.584;2023-07-02T09:39:19;20.60;60.30
67769;DHT22;54569;52.018;5.584;2023-07-02T09:41:48;20.60;59.80
67769;DHT22;54569;52.018;5.584;2023-07-02T09:44:15;20.60;59.40
67769;DHT22;54569;52.018;5.584;2023-07-02T09:46:56;20.60;59.70
67769;DHT22;54569;52.018;5.584;2023-07-02T09:49:24;20.70;59.30
67769;DHT22;54569;52.018;5.584;2023-07-02T09:51:51;20.80;59.70
67769;DHT22;54569;52.018;5.584;2023-07-02T09:54:17;20.90;59.40
67769;DHT22;54569;52.018;5.584;2023-07-02T09:56:46;21.00;59.30
67769;DHT22;54569;52.018;5.584;2023-07-02T09:59:13;21.10;59.10
67769;DHT22;54569;52.018;5.584;2023-07-02T10:01:39;21.20;58.70
67769;DHT22;54569;52.018;5.584;2023-07-02T10:04:12;21.10;58.80
67769;DHT22;54569;52.018;5.584;2023-07-02T10:06:49;21.10;55.80
67769;DHT22;54569;52.018;5.584;2023-07-02T10:09:16;20.90;56.70
67769;DHT22;54569;52.018;5.584;2023-07-02T10:11:43;20.80;58.70
67769;DHT22;54569;52.018;5.584;2023-07-02T10:14:09;20.80;58.30
67769;DHT22;54569;52.018;5.584;2023-07-02T10:16:47;20.80;58.10
67769;DHT22;54569;52.018;5.584;2023-07-02T10:19:13;20.90;58.00
67769;DHT22;54569;52.018;5.584;2023-07-02T10:21:39;21.00;57.80
67769;DHT22;54569;52.018;5.584;2023-07-02T10:24:12;21.20;57.50
67769;DHT22;54569;52.018;5.584;2023-07-02T10:26:38;21.30;56.40
67769;DHT22;54569;52.018;5.584;2023-07-02T10:29:04;21.30;57.60
67769;DHT22;54569;52.018;5.584;2023-07-02T10:31:31;21.40;57.20
67769;DHT22;54569;52.018;5.584;2023-07-02T10:33:57;21.70;56.90
67769;DHT22;54569;52.018;5.584;2023-07-02T10:36:26;21.90;56.70
67769;DHT22;54569;52.018;5.584;2023-07-02T10:38:51;22.00;55.80
67769;DHT22;54569;52.018;5.584;2023-07-02T10:41:28;22.00;56.20
67769;DHT22;54569;52.018;5.584;2023-07-02T10:44:04;22.00;54.90
67769;DHT22;54569;52.018;5.584;2023-07-02T10:46:30;22.10;55.70
67769;DHT22;54569;52.018;5.584;2023-07-02T10:48:57;22.10;55.90
67769;DHT22;54569;52.018;5.584;2023-07-02T10:51:23;22.30;55.60
67769;DHT22;54569;52.018;5.584;2023-07-02T10:54:09;22.40;55.20
67769;DHT22;54569;52.018;5.584;2023-07-02T10:56:35;22.60;51.60
67769;DHT22;54569;52.018;5.584;2023-07-02T10:59:01;22.70;54.60
67769;DHT22;54569;52.018;5.584;2023-07-02T11:01:31;22.70;54.50
67769;DHT22;54569;52.018;5.584;2023-07-02T11:06:27;22.60;54.50
67769;DHT22;54569;52.018;5.584;2023-07-02T11:08:54;22.50;54.70
67769;DHT22;54569;52.018;5.584;2023-07-02T11:11:23;22.70;54.60
67769;DHT22;54569;52.018;5.584;2023-07-02T11:13:50;22.80;54.20
67769;DHT22;54569;52.018;5.584;2023-07-02T11:16:26;22.90;54.10
67769;DHT22;54569;52.018;5.584;2023-07-02T11:18:54;22.90;52.60
67769;DHT22;54569;52.018;5.584;2023-07-02T11:21:31;22.80;54.40
67769;DHT22;54569;52.018;5.584;2023-07-02T11:24:03;22.60;54.60
67769;DHT22;54569;52.018;5.584;2023-07-02T11:26:40;22.60;53.10
67769;DHT22;54569;52.018;5.584;2023-07-02T11:29:12;22.60;53.50
67769;DHT22;54569;52.018;5.584;2023-07-02T11:31:43;22.60;52.20
67769;DHT22;54569;52.018;5.584;2023-07-02T11:34:16;22.60;53.50
67769;DHT22;54569;52.018;5.584;2023-07-02T11:36:42;22.50;52.00
67769;DHT22;54569;52.018;5.584;2023-07-02T11:39:08;22.40;54.20
67769;DHT22;54569;52.018;5.584;2023-07-02T11:41:40;22.50;53.60
67769;DHT22;54569;52.018;5.584;2023-07-02T11:44:07;22.50;51.50
67769;DHT22;54569;52.018;5.584;2023-07-02T11:46:33;22.40;53.40
67769;DHT22;54569;52.018;5.584;2023-07-02T11:49:03;22.40;53.00
67769;DHT22;54569;52.018;5.584;2023-07-02T11:51:36;22.30;52.50
67769;DHT22;54569;52.018;5.584;2023-07-02T11:54:05;22.20;53.00
67769;DHT22;54569;52.018;5.584;2023-07-02T11:56:31;22.20;53.20
67769;DHT22;54569;52.018;5.584;2023-07-02T11:58:57;22.10;52.90
67769;DHT22;54569;52.018;5.584;2023-07-02T12:01:23;22.10;52.90
67769;DHT22;54569;52.018;5.584;2023-07-02T12:03:48;22.10;53.00
67769;DHT22;54569;52.018;5.584;2023-07-02T12:06:14;22.00;52.70
67769;DHT22;54569;52.018;5.584;2023-07-02T12:08:40;21.90;52.50
67769;DHT22;54569;52.018;5.584;2023-07-02T12:11:06;21.80;52.70
67769;DHT22;54569;52.018;5.584;2023-07-02T12:13:32;21.60;52.50
67769;DHT22;54569;52.018;5.584;2023-07-02T12:15:58;21.50;52.70
67769;DHT22;54569;52.018;5.584;2023-07-02T12:18:24;21.50;53.00
67769;DHT22;54569;52.018;5.584;2023-07-02T12:20:49;21.50;52.80
67769;DHT22;54569;52.018;5.584;2023-07-02T12:23:15;21.60;52.70
67769;DHT22;54569;52.018;5.584;2023-07-02T12:25:41;21.70;52.30
67769;DHT22;54569;52.018;5.584;2023-07-02T12:28:06;21.80;52.10
67769;DHT22;54569;52.018;5.584;2023-07-02T12:30:32;21.90;51.80
67769;DHT22;54569;52.018;5.584;2023-07-02T12:32:58;22.00;51.90
67769;DHT22;54569;52.018;5.584;2023-07-02T12:35:24;22.00;51.80
67769;DHT22;54569;52.018;5.584;2023-07-02T12:37:51;22.10;51.90
67769;DHT22;54569;52.018;5.584;2023-07-02T12:40:18;22.10;51.90
67769;DHT22;54569;52.018;5.584;2023-07-02T12:42:45;22.20;51.20
67769;DHT22;54569;52.018;5.584;2023-07-02T12:45:12;22.30;51.00
67769;DHT22;54569;52.018;5.584;2023-07-02T12:47:39;22.30;51.00
67769;DHT22;54569;52.018;5.584;2023-07-02T12:50:05;22.30;50.60
67769;DHT22;54569;52.018;5.584;2023-07-02T12:52:31;22.40;51.20
67769;DHT22;54569;52.018;5.584;2023-07-02T12:54:57;22.40;50.90
67769;DHT22;54569;52.018;5.584;2023-07-02T12:57:23;22.50;50.80
67769;DHT22;54569;52.018;5.584;2023-07-02T12:59:49;22.50;50.70
67769;DHT22;54569;52.018;5.584;2023-07-02T13:02:14;22.60;50.90
67769;DHT22;54569;52.018;5.584;2023-07-02T13:04:40;22.60;50.90
67769;DHT22;54569;52.018;5.584;2023-07-02T13:07:06;22.60;50.80
67769;DHT22;54569;52.018;5.584;2023-07-02T13:09:31;22.70;50.90
67769;DHT22;54569;52.018;5.584;2023-07-02T13:11:57;22.70;50.90
67769;DHT22;54569;52.018;5.584;2023-07-02T13:14:23;22.80;50.80
67769;DHT22;54569;52.018;5.584;2023-07-02T13:16:48;22.80;50.70
67769;DHT22;54569;52.018;5.584;2023-07-02T13:19:14;22.80;50.40
67769;DHT22;54569;52.018;5.584;2023-07-02T13:21:41;22.80;50.40
67769;DHT22;54569;52.018;5.584;2023-07-02T13:24:07;22.80;50.10
67769;DHT22;54569;52.018;5.584;2023-07-02T13:26:32;22.70;50.60
67769;DHT22;54569;52.018;5.584;2023-07-02T13:28:58;22.60;50.70
67769;DHT22;54569;52.018;5.584;2023-07-02T13:31:24;22.60;50.60
67769;DHT22;54569;52.018;5.584;2023-07-02T13:33:50;22.60;50.70
67769;DHT22;54569;52.018;5.584;2023-07-02T13:36:16;22.60;50.90
67769;DHT22;54569;52.018;5.584;2023-07-02T13:38:42;22.50;50.60
67769;DHT22;54569;52.018;5.584;2023-07-02T13:41:08;22.60;50.20
67769;DHT22;54569;52.018;5.584;2023-07-02T13:43:34;22.60;50.30
67769;DHT22;54569;52.018;5.584;2023-07-02T13:46:02;22.60;50.60
67769;DHT22;54569;52.018;5.584;2023-07-02T13:48:28;22.60;50.30
67769;DHT22;54569;52.018;5.584;2023-07-02T13:50:54;22.60;50.80
67769;DHT22;54569;52.018;5.584;2023-07-02T13:53:19;22.60;50.30
67769;DHT22;54569;52.018;5.584;2023-07-02T13:55:46;22.60;50.20
67769;DHT22;54569;52.018;5.584;2023-07-02T13:58:11;22.40;50.30
67769;DHT22;54569;52.018;5.584;2023-07-02T14:00:37;22.30;50.60
67769;DHT22;54569;52.018;5.584;2023-07-02T14:03:04;22.20;50.60
67769;DHT22;54569;52.018;5.584;2023-07-02T14:05:29;22.00;50.40
67769;DHT22;54569;52.018;5.584;2023-07-02T14:07:55;21.80;50.70
67769;DHT22;54569;52.018;5.584;2023-07-02T14:10:21;21.70;51.20
67769;DHT22;54569;52.018;5.584;2023-07-02T14:12:47;21.90;51.10
67769;DHT22;54569;52.018;5.584;2023-07-02T14:15:12;22.10;50.60
67769;DHT22;54569;52.018;5.584;2023-07-02T14:17:38;22.10;50.00
67769;DHT22;54569;52.018;5.584;2023-07-02T14:20:05;22.20;49.90
67769;DHT22;54569;52.018;5.584;2023-07-02T14:22:31;22.20;49.80
67769;DHT22;54569;52.018;5.584;2023-07-02T14:24:57;22.10;50.00
67769;DHT22;54569;52.018;5.584;2023-07-02T14:27:22;22.10;49.70
67769;DHT22;54569;52.018;5.584;2023-07-02T14:29:48;22.10;49.90
67769;DHT22;54569;52.018;5.584;2023-07-02T14:32:14;21.90;49.90
67769;DHT22;54569;52.018;5.584;2023-07-02T14:34:40;21.80;50.30
67769;DHT22;54569;52.018;5.584;2023-07-02T14:37:07;21.60;50.40
67769;DHT22;54569;52.018;5.584;2023-07-02T14:39:32;21.60;50.40
67769;DHT22;54569;52.018;5.584;2023-07-02T14:41:58;21.50;50.30
67769;DHT22;54569;52.018;5.584;2023-07-02T14:44:24;21.50;50.30
67769;DHT22;54569;52.018;5.584;2023-07-02T14:46:51;21.60;50.20
67769;DHT22;54569;52.018;5.584;2023-07-02T14:49:17;21.50;49.80
67769;DHT22;54569;52.018;5.584;2023-07-02T14:51:43;21.60;49.50
67769;DHT22;54569;52.018;5.584;2023-07-02T14:54:09;21.50;49.30
67769;DHT22;54569;52.018;5.584;2023-07-02T14:56:35;21.50;50.20
67769;DHT22;54569;52.018;5.584;2023-07-02T14:59:03;21.40;49.30
67769;DHT22;54569;52.018;5.584;2023-07-02T15:01:33;21.30;49.30
67769;DHT22;54569;52.018;5.584;2023-07-02T15:03:58;21.30;49.50
67769;DHT22;54569;52.018;5.584;2023-07-02T15:06:24;21.50;49.40
67769;DHT22;54569;52.018;5.584;2023-07-02T15:08:50;21.60;49.10
67769;DHT22;54569;52.018;5.584;2023-07-02T15:11:17;21.70;48.90
67769;DHT22;54569;52.018;5.584;2023-07-02T15:13:43;21.90;49.00
67769;DHT22;54569;52.018;5.584;2023-07-02T15:16:09;21.90;48.80
67769;DHT22;54569;52.018;5.584;2023-07-02T15:18:35;22.00;49.30
67769;DHT22;54569;52.018;5.584;2023-07-02T15:21:02;22.10;48.30
67769;DHT22;54569;52.018;5.584;2023-07-02T15:23:30;22.10;48.10
67769;DHT22;54569;52.018;5.584;2023-07-02T15:26:01;21.90;48.30
67769;DHT22;54569;52.018;5.584;2023-07-02T15:28:28;21.90;48.60
67769;DHT22;54569;52.018;5.584;2023-07-02T15:30:57;22.00;48.80
67769;DHT22;54569;52.018;5.584;2023-07-02T15:33:23;22.10;48.50
67769;DHT22;54569;52.018;5.584;2023-07-02T15:35:49;22.00;48.30